Flight Track Log - Related Links

Times and Time Zones

All times are in EDT time to prevent confusion due to time zone crossing. See the N652DL flight status page for this flight to view local times or setup timezone preferences in your user account.

Time Position Orientation Groundspeed Altitude Reporting Facility
EDT Latitude Longitude Course Direction KTS MPH feet Rate Location/Type
Wed 11:12:52 AM 47.4286 -122.3108 179° South 188 216 1,500  Level Seattle Center
Wed 11:14:00 AM 47.3725 -122.3094 161° South 198 228 3,500 2,279 Climbing Seattle Center
Wed 11:15:01 AM 47.3136 -122.2800 75° East 250 288 6,400 2,508 Climbing Seattle Center
Wed 11:16:02 AM 47.3328 -122.1772 63° Northeast 283 326 8,600 2,459 Climbing Seattle Center
Wed 11:17:03 AM 47.3694 -122.0731 62° Northeast 292 336 11,400 2,361 Climbing Seattle Center
Wed 11:18:04 AM 47.4100 -121.9622 78° East 310 357 13,400 1,574 Climbing Seattle Center
Wed 11:19:05 AM 47.4300 -121.8236 91° East 369 425 14,600 1,180 Climbing Seattle Center
Wed 11:20:06 AM 47.4283 -121.6225 91° East 429 494 15,800 1,525 Climbing Seattle Center
Wed 11:21:07 AM 47.4256 -121.4375 97° East 454 522 17,700 1,721 Climbing Seattle Center
Wed 11:22:08 AM 47.4103 -121.2456 98° East 475 547 19,300 1,770 Climbing Seattle Center
Wed 11:23:09 AM 47.3925 -121.0533 104° East 478 550 21,300 1,805 Climbing Seattle Center
Wed 11:24:11 AM 47.3606 -120.8611 103° East 490 564 23,000 1,707 Climbing Seattle Center
Wed 11:25:12 AM 47.3244 -120.6336 103° East 497 572 24,800 1,475 Climbing Seattle Center
Wed 11:26:13 AM 47.2914 -120.4317 103° East 505 581 26,000 1,033 Climbing Seattle Center
Wed 11:27:14 AM 47.2586 -120.2256 103° East 515 593 26,900 934 Climbing Seattle Center
Wed 11:28:15 AM 47.2250 -120.0133 104° East 527 606 27,900 984 Climbing Seattle Center
Wed 11:29:16 AM 47.1881 -119.7953 104° East 544 626 28,900 1,230 Climbing Seattle Center
Wed 11:30:17 AM 47.1511 -119.5756 104° East 552 635 30,400 1,426 Climbing Seattle Center
Wed 11:31:18 AM 47.1147 -119.3611 104° East 549 632 31,800 1,377 Climbing Seattle Center
Wed 11:32:19 AM 47.0778 -119.1500 104° East 541 623 33,200 1,220 Climbing Seattle Center
Wed 11:33:21 AM 47.0408 -118.9406 105° East 536 617 34,300 878 Climbing Seattle Center
Wed 11:34:22 AM 47.0033 -118.7319 105° East 533 613 35,000 344 Climbing Seattle Center
Wed 11:35:23 AM 46.9583 -118.4814 104° East 534 615 35,000  Level Seattle Center
Wed 11:36:24 AM 46.9225 -118.2756 105° East 529 609 35,000  Level Seattle Center
Wed 11:37:25 AM 46.8844 -118.0686 106° East 531 611 35,000  Level Seattle Center
Wed 11:38:26 AM 46.8450 -117.8622 105° East 531 611 35,000  Level Seattle Center
Wed 11:39:28 AM 46.8053 -117.6514 106° East 537 618 35,000  Level Seattle Center
Wed 11:40:29 AM 46.7650 -117.4444 106° East 538 619 35,000  Level Seattle Center
Wed 11:41:30 AM 46.7258 -117.2408 106° East 532 612 35,000  Level Seattle Center
Wed 11:42:31 AM 46.6864 -117.0375 106° East 528 608 35,000  Level Seattle Center
Wed 11:44:33 AM 46.5961 -116.5814 106° East 535 616 35,000  Level Seattle Center
Wed 11:45:35 AM 46.5550 -116.3781 106° East 532 612 35,000  Level Seattle Center
Wed 11:46:36 AM 46.5136 -116.1728 107° East 531 611 35,000  Level Seattle Center
Wed 11:47:08 AM 46.4878 -116.0511 107° East 531 611 35,000  Level Salt Center
Wed 11:48:11 AM 46.4450 -115.8467 107° East 532 612 35,000  Level Salt Center
Wed 11:49:13 AM 46.4028 -115.6417 107° East 531 611 35,000  Level Salt Center
Wed 11:50:16 AM 46.3594 -115.4375 107° East 533 613 35,000  Level Salt Center
Wed 11:51:19 AM 46.3156 -115.2353 107° East 531 611 35,000  Level Salt Center
Wed 11:52:21 AM 46.2636 -114.9958 107° East 532 612 35,000  Level Salt Center
Wed 11:53:24 AM 46.2197 -114.7925 107° East 534 615 35,000  Level Salt Center
Wed 11:54:27 AM 46.1753 -114.5894 108° East 533 613 35,000  Level Salt Center
Wed 11:55:29 AM 46.1303 -114.3878 108° East 533 613 35,000  Level Salt Center
Wed 11:56:32 AM 46.0753 -114.1483 108° East 529 609 35,000  Level Salt Center
Wed 11:57:34 AM 46.0300 -113.9472 108° East 531 611 35,000  Level Salt Center
Wed 11:58:37 AM 45.9839 -113.7453 109° East 532 612 35,000  Level Salt Center
Wed 11:59:40 AM 45.9289 -113.5150 109° East 533 613 35,000  Level Salt Center
Wed 12:00:42 PM 45.8814 -113.3144 108° East 533 613 35,000  Level Salt Center
Wed 12:01:45 PM 45.8356 -113.1117 109° East 535 616 35,000  Level Salt Center
Wed 12:02:48 PM 45.7867 -112.9114 109° East 534 615 35,000  Level Salt Center
Wed 12:03:50 PM 45.7283 -112.6706 109° East 534 615 35,000  Level Salt Center
Wed 12:04:53 PM 45.6789 -112.4683 110° East 537 618 35,000  Level Salt Center
Wed 12:05:55 PM 45.6292 -112.2706 109° East 535 616 35,000  Level Salt Center
Wed 12:06:58 PM 45.5806 -112.0714 110° East 534 615 35,000  Level Salt Center
Wed 12:08:01 PM 45.5211 -111.8333 110° East 534 615 35,000  Level Salt Center
Wed 12:09:03 PM 45.4717 -111.6353 110° East 535 616 35,000  Level Salt Center
Wed 12:10:06 PM 45.4214 -111.4397 110° East 533 613 35,000  Level Salt Center
Wed 12:11:09 PM 45.3714 -111.2442 110° East 532 612 35,000  Level Salt Center
Wed 12:12:11 PM 45.3111 -111.0086 111° Southeast 534 615 35,000  Level Salt Center
Wed 12:13:14 PM 45.2597 -110.8142 111° Southeast 532 612 35,000  Level Salt Center
Wed 12:14:16 PM 45.2078 -110.6178 110° East 532 612 35,000  Level Salt Center
Wed 12:15:19 PM 45.1500 -110.3983 111° Southeast 532 612 35,000 48 Level Salt Center
Wed 12:16:21 PM 45.1006 -110.2178 111° Southeast 534 615 35,100 48 Climbing Salt Center
Wed 12:17:24 PM 45.0408 -109.9983 111° Southeast 534 615 35,100  Level Salt Center
Wed 12:18:26 PM 44.9892 -109.8047 111° Southeast 533 613 35,100 -48 Level Salt Center
Wed 12:19:29 PM 44.9292 -109.5872 111° Southeast 533 613 35,000  Descending Salt Center
Wed 12:20:31 PM 44.8772 -109.4014 112° Southeast 533 613 35,100  Climbing Salt Center
Wed 12:21:34 PM 44.8164 -109.1853 112° Southeast 533 613 35,000 -48 Descending Salt Center
Wed 12:22:37 PM 44.7642 -109.0008 112° Southeast 533 613 35,000 48 Level Salt Center
Wed 12:23:39 PM 44.7031 -108.7872 112° Southeast 530 610 35,100 48 Climbing Salt Center
Wed 12:24:42 PM 44.6517 -108.6050 112° Southeast 528 608 35,100 -48 Level Salt Center
Wed 12:25:44 PM 44.5903 -108.3936 112° Southeast 527 606 35,000 -48 Descending Salt Center
Wed 12:26:47 PM 44.5286 -108.1833 113° Southeast 527 606 35,000  Level Salt Center
Wed 12:27:49 PM 44.4747 -108.0019 113° Southeast 530 610 35,000  Level Salt Center
Wed 12:28:52 PM 44.4117 -107.7919 112° Southeast 531 611 35,000 48 Level Salt Center
Wed 12:29:54 PM 44.3586 -107.6117 113° Southeast 529 609 35,100  Climbing Salt Center
Wed 12:30:56 PM 44.2953 -107.4014 112° Southeast 528 608 35,000 -48 Descending Salt Center
Wed 12:31:59 PM 44.2414 -107.2200 113° Southeast 530 610 35,000 48 Level Salt Center
Wed 12:33:01 PM 44.1772 -107.0089 113° Southeast 531 611 35,100  Climbing Salt Center
Wed 12:34:04 PM 44.1219 -106.8289 113° Southeast 530 610 35,000 -48 Descending Salt Center
Wed 12:35:06 PM 44.0569 -106.6203 113° Southeast 529 609 35,000  Level Salt Center
Wed 12:36:09 PM 44.0014 -106.4411 113° Southeast 528 608 35,000  Level Salt Center
Wed 12:37:11 PM 43.9419 -106.2494 113° Southeast 527 606 35,000 48 Level Salt Center
Wed 12:38:14 PM 43.8783 -106.0397 113° Southeast 527 606 35,100  Climbing Salt Center
Wed 12:38:57 PM 43.8406 -105.9192 113° Southeast 531 611 35,000  Descending Denver Center
Wed 12:39:59 PM 43.7764 -105.7092 114° Southeast 530 610 35,100  Climbing Denver Center
Wed 12:41:02 PM 43.7194 -105.5311 114° Southeast 530 610 35,000 -48 Descending Denver Center
Wed 12:42:04 PM 43.6517 -105.3239 114° Southeast 530 610 35,000 48 Level Denver Center
Wed 12:43:07 PM 43.5950 -105.1453 114° Southeast 530 610 35,100 48 Climbing Denver Center
Wed 12:44:09 PM 43.5275 -104.9364 114° Southeast 532 612 35,100 -48 Level Denver Center
Wed 12:45:12 PM 43.4692 -104.7586 114° Southeast 532 612 35,000 -48 Descending Denver Center
Wed 12:46:14 PM 43.4019 -104.5506 115° Southeast 531 611 35,000 48 Level Denver Center
Wed 12:47:17 PM 43.3431 -104.3733 115° Southeast 531 611 35,100  Climbing Denver Center
Wed 12:48:19 PM 43.2742 -104.1689 114° Southeast 528 608 35,000 -48 Descending Denver Center
Wed 12:49:22 PM 43.2158 -103.9936 115° Southeast 527 606 35,000  Level Denver Center
Wed 12:50:25 PM 43.1475 -103.7908 115° Southeast 525 604 35,000  Level Denver Center
Wed 12:51:27 PM 43.0889 -103.6178 115° Southeast 523 602 35,000  Level Denver Center
Wed 12:52:30 PM 43.0197 -103.4183 116° Southeast 520 598 35,000  Level Denver Center
Wed 12:53:32 PM 42.9600 -103.2478 115° Southeast 519 597 35,000  Level Denver Center
Wed 12:54:35 PM 42.8911 -103.0494 115° Southeast 518 596 35,000 48 Level Denver Center
Wed 12:55:37 PM 42.8325 -102.8806 115° Southeast 516 594 35,100  Climbing Denver Center
Wed 12:56:40 PM 42.7642 -102.6850 116° Southeast 513 590 35,000 -48 Descending Denver Center
Wed 12:57:42 PM 42.7050 -102.5186 116° Southeast 511 588 35,000  Level Denver Center
Wed 12:58:45 PM 42.6369 -102.3269 116° Southeast 506 582 35,000  Level Denver Center
Wed 12:59:47 PM 42.5792 -102.1633 116° Southeast 503 579 35,000  Level Denver Center
Wed 01:00:50 PM 42.5100 -101.9753 116° Southeast 500 575 35,000 48 Level Denver Center
Wed 01:01:52 PM 42.4472 -101.8017 116° Southeast 497 572 35,100  Climbing Denver Center
Wed 01:02:55 PM 42.3789 -101.6161 116° Southeast 494 568 35,000  Descending Denver Center
Wed 01:03:57 PM 42.3211 -101.4561 116° Southeast 494 568 35,100  Climbing Denver Center
Wed 01:05:00 PM 42.2533 -101.2706 117° Southeast 493 567 35,000 -48 Descending Denver Center
Wed 01:06:02 PM 42.1939 -101.1131 117° Southeast 492 566 35,000  Level Denver Center
Wed 01:07:05 PM 42.1244 -100.9281 117° Southeast 493 567 35,000 48 Level Denver Center
Wed 01:08:08 PM 42.0644 -100.7689 117° Southeast 496 571 35,100  Climbing Denver Center
Wed 01:09:10 PM 41.9944 -100.5831 117° Southeast 498 573 35,000  Descending Denver Center
Wed 01:10:13 PM 41.9336 -100.4244 117° Southeast 498 573 35,100 816 Climbing Denver Center
Wed 01:11:15 PM 41.8628 -100.2397 117° Southeast 497 572 36,700 960 Climbing Denver Center
Wed 01:12:18 PM 41.8028 -100.0844 117° Southeast 492 566 37,100 144 Climbing Denver Center
Wed 01:13:20 PM 41.7328 -99.9031 118° Southeast 490 564 37,000 -48 Descending Denver Center
Wed 01:14:23 PM 41.6653 -99.7308 118° Southeast 494 568 37,000 48 Level Denver Center
Wed 01:15:25 PM 41.6008 -99.5664 118° Southeast 498 573 37,100  Climbing Denver Center
Wed 01:16:28 PM 41.5372 -99.4039 118° Southeast 496 571 37,000 -48 Descending Denver Center
Wed 01:17:30 PM 41.4753 -99.2492 118° Southeast 480 552 37,000 48 Level Denver Center
Wed 01:18:33 PM 41.4147 -99.0947 106° East 470 541 37,100 48 Climbing Denver Center
Wed 01:19:36 PM 41.3764 -98.9214 104° East 484 557 37,100  Level Denver Center
Wed 01:20:38 PM 41.3367 -98.7047 104° East 493 567 37,100 -48 Level Denver Center
Wed 01:21:41 PM 41.3028 -98.5222 103° East 497 572 37,000  Descending Denver Center
Wed 01:22:43 PM 41.2711 -98.3394 104° East 501 577 37,100 48 Climbing Denver Center
Wed 01:23:46 PM 41.2372 -98.1572 105° East 504 580 37,100 -42 Level Denver Center
Wed 01:25:07 PM 41.1861 -97.8975 105° East 500 575 37,000 -43 Descending Minneapolis Center
Wed 01:26:06 PM 41.1494 -97.7186 105° East 500 575 37,000 150 Level Minneapolis Center
Wed 01:27:07 PM 41.1128 -97.5372 108° East 506 582 37,300 595 Climbing Minneapolis Center
Wed 01:28:07 PM 41.0692 -97.3611 117° Southeast 506 582 38,200 800 Climbing Minneapolis Center
Wed 01:29:07 PM 41.0083 -97.2008 121° Southeast 493 567 38,900 400 Climbing Minneapolis Center
Wed 01:30:07 PM 40.9425 -97.0569 118° Southeast 499 574 39,000 50 Climbing Minneapolis Center
Wed 01:31:06 PM 40.8769 -96.8969 120° Southeast 499 574 39,000  Level Minneapolis Center
Wed 01:32:06 PM 40.8089 -96.7397 119° Southeast 499 574 39,000  Level Minneapolis Center
Wed 01:33:07 PM 40.7428 -96.5831 120° Southeast 499 574 39,000  Level Minneapolis Center
Wed 01:34:06 PM 40.6744 -96.4267 120° Southeast 499 574 39,000  Level Minneapolis Center
Wed 01:35:06 PM 40.6058 -96.2681 118° Southeast 504 580 39,000  Level Minneapolis Center
Wed 01:36:47 PM 40.4947 -95.9978 121° Southeast 488 562 39,000  Level Kansas Center
Wed 01:37:47 PM 40.4175 -95.8272 121° Southeast 488 562 39,000  Level Kansas Center
Wed 01:38:47 PM 40.3483 -95.6736 121° Southeast 493 567 39,000  Level Kansas Center
Wed 01:39:48 PM 40.2850 -95.5339 121° Southeast 493 567 39,000  Level Kansas Center
Wed 01:40:47 PM 40.2153 -95.3833 120° Southeast 493 567 39,000  Level Kansas Center
Wed 01:41:47 PM 40.1394 -95.2117 121° Southeast 493 567 39,000  Level Kansas Center
Wed 01:42:48 PM 40.0694 -95.0617 121° Southeast 493 567 39,000  Level Kansas Center
Wed 01:43:48 PM 39.9969 -94.9067 121° Southeast 501 577 39,000  Level Kansas Center
Wed 01:44:48 PM 39.9328 -94.7683 121° Southeast 496 571 39,000  Level Kansas Center
Wed 01:45:48 PM 39.8539 -94.5978 121° Southeast 496 571 39,000  Level Kansas Center
Wed 01:46:47 PM 39.7831 -94.4467 121° Southeast 496 571 39,000  Level Kansas Center
Wed 01:47:47 PM 39.7122 -94.2956 121° Southeast 496 571 39,000  Level Kansas Center
Wed 01:48:47 PM 39.6450 -94.1528 122° Southeast 496 571 39,000  Level Kansas Center
Wed 01:49:47 PM 39.5736 -94.0025 122° Southeast 496 571 39,000  Level Kansas Center
Wed 01:50:47 PM 39.4936 -93.8364 123° Southeast 496 571 39,000  Level Kansas Center
Wed 01:51:48 PM 39.4197 -93.6867 122° Southeast 496 571 39,000  Level Kansas Center
Wed 01:52:47 PM 39.3456 -93.5317 121° Southeast 496 571 39,000  Level Kansas Center
Wed 01:53:47 PM 39.2736 -93.3800 123° Southeast 491 565 39,000  Level Kansas Center
Wed 01:54:47 PM 39.2011 -93.2336 122° Southeast 497 572 39,000  Level Kansas Center
Wed 01:55:47 PM 39.1350 -93.0958 122° Southeast 489 563 39,000  Level Kansas Center
Wed 01:56:47 PM 39.0600 -92.9419 122° Southeast 496 571 39,000  Level Kansas Center
Wed 01:57:47 PM 38.9914 -92.7994 122° Southeast 485 558 39,000  Level Kansas Center
Wed 01:58:48 PM 38.9183 -92.6517 122° Southeast 480 552 39,000  Level Kansas Center
Wed 01:59:47 PM 38.8450 -92.5017 123° Southeast 485 558 39,000  Level Kansas Center
Wed 02:00:47 PM 38.7694 -92.3519 122° Southeast 491 565 39,000  Level Kansas Center
Wed 02:01:47 PM 38.6981 -92.2050 122° Southeast 491 565 39,000  Level Kansas Center
Wed 02:02:48 PM 38.6242 -92.0558 123° Southeast 491 565 39,000  Level Kansas Center
Wed 02:03:48 PM 38.5500 -91.9097 123° Southeast 491 565 39,000  Level Kansas Center
Wed 02:04:47 PM 38.4739 -91.7611 124° Southeast 491 565 39,000  Level Kansas Center
Wed 02:05:47 PM 38.3994 -91.6181 123° Southeast 491 565 39,000  Level Kansas Center
Wed 02:06:47 PM 38.3164 -91.4572 125° Southeast 491 565 39,000  Level Kansas Center
Wed 02:07:47 PM 38.2461 -91.3281 123° Southeast 491 565 39,000  Level Kansas Center
Wed 02:08:47 PM 38.1647 -91.1703 123° Southeast 491 565 39,000  Level Kansas Center
Wed 02:09:47 PM 38.0964 -91.0389 123° Southeast 491 565 39,000  Level Kansas Center
Wed 02:10:48 PM 38.0167 -90.8844 124° Southeast 485 558 39,000 50 Level Kansas Center
Wed 02:11:48 PM 37.9481 -90.7558 124° Southeast 485 558 39,100  Climbing Kansas Center
Wed 02:12:48 PM 37.8658 -90.5997 123° Southeast 475 547 39,000 -50 Descending Kansas Center
Wed 02:13:48 PM 37.7922 -90.4589 124° Southeast 480 552 39,000  Level Kansas Center
Wed 02:14:47 PM 37.7275 -90.3364 123° Southeast 472 543 39,000  Level Kansas Center
Wed 02:15:48 PM 37.6536 -90.1936 117° Southeast 477 549 39,000  Level Kansas Center
Wed 02:16:47 PM 37.5964 -90.0525 117° Southeast 482 555 39,000  Level Kansas Center
Wed 02:18:49 PM 37.4614 -89.7247 117° Southeast 478 550 39,000  Level Memphis Center
Wed 02:19:49 PM 37.3981 -89.5686 118° Southeast 488 562 39,000  Level Memphis Center
Wed 02:20:49 PM 37.3344 -89.4178 118° Southeast 488 562 39,000  Level Memphis Center
Wed 02:21:49 PM 37.2686 -89.2597 118° Southeast 488 562 39,000  Level Memphis Center
Wed 02:22:49 PM 37.2047 -89.1069 118° Southeast 493 567 39,000  Level Memphis Center
Wed 02:23:49 PM 37.1383 -88.9492 118° Southeast 498 573 39,000  Level Memphis Center
Wed 02:24:49 PM 37.0742 -88.7969 119° Southeast 498 573 39,000  Level Memphis Center
Wed 02:25:49 PM 37.0075 -88.6450 118° Southeast 492 566 39,000  Level Memphis Center
Wed 02:26:49 PM 36.9428 -88.4931 118° Southeast 497 572 39,000  Level Memphis Center
Wed 02:27:49 PM 36.8736 -88.3314 118° Southeast 491 565 39,000 -700 Level Memphis Center
Wed 02:28:49 PM 36.8086 -88.1803 121° Southeast 485 558 37,600 -1,000 Descending Memphis Center
Wed 02:29:49 PM 36.7350 -88.0269 118° Southeast 511 588 37,000 -300 Descending Memphis Center
Wed 02:30:49 PM 36.6672 -87.8683 119° Southeast 516 594 37,000  Level Memphis Center
Wed 02:31:49 PM 36.5994 -87.7156 119° Southeast 516 594 37,000  Level Memphis Center
Wed 02:32:49 PM 36.5294 -87.5603 131° Southeast 516 594 37,000  Level Memphis Center
Wed 02:33:49 PM 36.4389 -87.4292 137° Southeast 511 588 37,000 -250 Level Memphis Center
Wed 02:34:49 PM 36.3358 -87.3092 137° Southeast 505 581 36,500 -700 Descending Memphis Center
Wed 02:35:49 PM 36.2328 -87.1897 137° Southeast 505 581 35,600 -950 Descending Memphis Center
Wed 02:36:49 PM 36.1297 -87.0728 136° Southeast 499 574 34,600 -1,300 Descending Memphis Center
Wed 02:37:49 PM 36.0347 -86.9586 136° Southeast 489 563 33,000 -800 Descending Memphis Center
Wed 02:38:49 PM 35.9356 -86.8422 136° Southeast 484 557 33,000  Level Memphis Center
Wed 02:39:49 PM 35.8408 -86.7311 135° Southeast 478 550 33,000  Level Memphis Center
Wed 02:40:49 PM 35.7456 -86.6150 136° Southeast 478 550 33,000  Level Memphis Center
Wed 02:43:06 PM 35.5378 -86.3689 137° Southeast 473 544 33,000 -274 Level Atlanta Center
Wed 02:44:06 PM 35.4294 -86.2461 136° Southeast 473 544 32,100 -1,150 Descending Atlanta Center
Wed 02:45:06 PM 35.3311 -86.1314 136° Southeast 478 550 30,700 -1,587 Descending Atlanta Center
Wed 02:46:07 PM 35.2308 -86.0144 136° Southeast 491 565 28,900 -1,500 Descending Atlanta Center
Wed 02:47:06 PM 35.1408 -85.9081 140° Southeast 491 565 27,700 -1,210 Descending Atlanta Center
Wed 02:48:06 PM 35.0358 -85.8017 147° Southeast 491 565 26,500 -1,700 Descending Atlanta Center
Wed 02:49:06 PM 34.9142 -85.7056 147° Southeast 481 554 24,300 -1,250 Descending Atlanta Center
Wed 02:50:06 PM 34.8150 -85.6275 148° Southeast 456 525 24,000 -150 Descending Atlanta Center
Wed 02:51:06 PM 34.7178 -85.5525 147° Southeast 435 501 24,000  Level Atlanta Center
Wed 02:52:06 PM 34.6228 -85.4775 147° Southeast 422 486 24,000 -446 Level Atlanta Center
Wed 02:53:07 PM 34.5256 -85.4003 148° Southeast 417 480 23,100 -1,450 Descending Atlanta Center
Wed 02:54:06 PM 34.4344 -85.3308 146° Southeast 412 474 21,100 -2,000 Descending Atlanta Center
Wed 02:55:07 PM 34.3456 -85.2589 149° Southeast 400 460 19,100 -1,983 Descending Atlanta Center
Wed 02:56:07 PM 34.2542 -85.1922 147° Southeast 394 453 17,100 -2,017 Descending Atlanta Center
Wed 02:57:06 PM 34.1672 -85.1233 135° Southeast 388 447 15,100 -1,563 Descending Atlanta Center
Wed 02:58:06 PM 34.0950 -85.0347 133° Southeast 377 434 14,000 -545 Descending Atlanta Center
Wed 02:59:07 PM 34.0247 -84.9436 133° Southeast 367 422 14,000  Level Atlanta Center
Wed 03:00:07 PM 33.9544 -84.8528 134° Southeast 367 422 14,000 -353 Level Atlanta Center
Wed 03:01:06 PM 33.8839 -84.7644 127° Southeast 367 422 13,300 -1,309 Descending Atlanta Center
Wed 03:01:57 PM 33.8333 -84.6833 140° Southeast 360 414 11,600 -1,314 Descending Atlanta TRACON
Wed 03:02:51 PM 33.7667 -84.6167 116° Southeast 331 381 11,000 -316 Descending Atlanta TRACON
Wed 03:03:51 PM 33.7333 -84.5333 90° East 263 303 11,000 -800 Level Atlanta TRACON
Wed 03:04:51 PM 33.7333 -84.4500 90° East 249 287 9,400 -1,650 Descending Atlanta TRACON
Wed 03:05:51 PM 33.7333 -84.3667 90° East 236 272 7,700 -1,850 Descending Atlanta TRACON
Wed 03:06:51 PM 33.7333 -84.3000 129° Southeast 224 258 5,700 -1,850 Descending Atlanta TRACON
Wed 03:07:51 PM 33.7000 -84.2500 209° Southwest 230 265 4,000 -1,150 Descending Atlanta TRACON
Wed 03:08:51 PM 33.6500 -84.2833 270° West 200 230 3,400 -900 Descending Atlanta TRACON
Wed 03:10:51 PM 33.6500 -84.4000 220° Southwest 144 166 1,300 -1,050 Descending Atlanta TRACON
Wed 03:18:32 PM 33.6333 -84.4167 220° Southwest  Level FlightAware

Login

Don't have an account? Register now (free) for customized features, flight alerts, and more!